createdAt,value
2022-09-07T00:01:00.956Z,5.28
2022-09-07T00:03:27.962Z,3.42
2022-09-07T00:05:54.654Z,3.38
2022-09-07T00:08:25.330Z,3.28
2022-09-07T00:10:59.851Z,3.55
2022-09-07T00:13:30.403Z,2.08
2022-09-07T00:15:57.783Z,3.45
2022-09-07T00:18:27.129Z,2.65
2022-09-07T00:21:04.763Z,2.85
2022-09-07T00:23:31.843Z,2.78
2022-09-07T00:26:24.565Z,3.03
2022-09-07T00:28:51.533Z,3.53
2022-09-07T00:31:20.013Z,3.70
2022-09-07T00:33:50.352Z,4.25
2022-09-07T00:36:17.828Z,2.00
2022-09-07T00:38:44.833Z,3.17
2022-09-07T00:41:11.759Z,2.75
2022-09-07T00:43:39.931Z,3.05
2022-09-07T00:46:07.698Z,4.35
2022-09-07T00:48:39.217Z,3.35
2022-09-07T00:51:08.210Z,4.05
2022-09-07T00:53:37.156Z,5.30
2022-09-07T00:56:04.687Z,3.58
2022-09-07T00:58:32.123Z,3.10
2022-09-07T01:00:58.764Z,2.67
2022-09-07T01:03:34.724Z,1.70
2022-09-07T01:06:07.043Z,2.50
2022-09-07T01:08:35.833Z,3.22
2022-09-07T01:11:02.831Z,2.85
2022-09-07T01:13:29.775Z,2.72
2022-09-07T01:16:02.640Z,3.08
2022-09-07T01:18:32.626Z,3.65
2022-09-07T01:21:11.439Z,2.00
2022-09-07T01:23:40.987Z,2.75
2022-09-07T01:26:10.469Z,1.67
2022-09-07T01:28:37.769Z,1.73
2022-09-07T01:31:13.898Z,2.25
2022-09-07T01:33:47.999Z,3.17
2022-09-07T01:36:14.702Z,4.20
2022-09-07T01:38:44.852Z,4.35
2022-09-07T01:41:17.774Z,2.80
2022-09-07T01:44:00.456Z,2.38
2022-09-07T01:46:28.763Z,3.47
2022-09-07T01:48:57.934Z,2.17
2022-09-07T01:51:28.088Z,2.08
2022-09-07T01:54:00.966Z,1.95
2022-09-07T01:56:33.208Z,3.20
2022-09-07T01:59:05.014Z,4.60
2022-09-07T02:01:36.646Z,1.70
2022-09-07T02:04:18.840Z,2.72
2022-09-07T02:06:48.324Z,2.08
2022-09-07T02:09:25.772Z,2.40
2022-09-07T02:11:53.304Z,1.80
2022-09-07T02:14:24.868Z,2.70
2022-09-07T02:17:04.844Z,1.50
2022-09-07T02:19:35.271Z,3.65
2022-09-07T02:22:05.364Z,2.08
2022-09-07T02:24:35.237Z,3.03
2022-09-07T02:27:06.198Z,3.08
2022-09-07T02:29:32.900Z,2.45
2022-09-07T02:31:59.504Z,4.07
2022-09-07T02:34:26.128Z,1.13
2022-09-07T02:36:53.754Z,2.42
2022-09-07T02:39:20.310Z,3.30
2022-09-07T02:41:47.060Z,2.30
2022-09-07T02:44:16.053Z,2.03
2022-09-07T02:47:21.392Z,2.53
2022-09-07T02:49:57.293Z,2.05
2022-09-07T02:52:42.137Z,3.28
2022-09-07T02:55:08.856Z,3.20
2022-09-07T02:57:35.357Z,2.10
2022-09-07T03:00:11.232Z,2.67
2022-09-07T03:02:56.551Z,4.35
2022-09-07T03:05:26.317Z,2.15
2022-09-07T03:07:52.885Z,2.85
2022-09-07T03:10:19.915Z,2.55
2022-09-07T03:12:48.039Z,2.83
2022-09-07T03:15:15.663Z,2.78
2022-09-07T03:17:42.618Z,1.50
2022-09-07T03:20:09.398Z,1.52
2022-09-07T03:22:36.072Z,3.83
2022-09-07T03:25:04.405Z,2.10
2022-09-07T03:27:31.649Z,4.28
2022-09-07T03:29:58.991Z,2.17
2022-09-07T03:32:25.703Z,2.28
2022-09-07T03:34:52.275Z,3.78
2022-09-07T03:37:18.835Z,1.80
2022-09-07T03:39:45.417Z,2.40
2022-09-07T03:42:11.997Z,2.42
2022-09-07T03:44:38.631Z,2.80
2022-09-07T03:47:05.368Z,2.55
2022-09-07T03:49:31.876Z,4.28
2022-09-07T03:51:58.719Z,1.95
2022-09-07T03:54:25.373Z,2.83
2022-09-07T03:56:54.645Z,3.72
2022-09-07T03:59:21.513Z,1.30
2022-09-07T04:01:48.194Z,3.38
2022-09-07T04:04:15.620Z,2.78
2022-09-07T04:06:42.282Z,4.10
2022-09-07T04:09:11.933Z,2.00
2022-09-07T04:11:39.180Z,3.25
2022-09-07T04:14:06.112Z,2.60
2022-09-07T04:16:32.762Z,1.98
2022-09-07T04:19:02.336Z,1.95
2022-09-07T04:21:30.630Z,2.17
2022-09-07T04:23:57.971Z,1.42
2022-09-07T04:26:26.008Z,1.60
2022-09-07T04:28:53.110Z,1.05
2022-09-07T04:31:20.007Z,3.15
2022-09-07T04:33:47.529Z,1.92
2022-09-07T04:36:14.889Z,3.22
2022-09-07T04:38:41.630Z,2.33
2022-09-07T04:41:14.765Z,2.00
2022-09-07T04:43:43.311Z,2.83
2022-09-07T04:46:18.540Z,2.63
2022-09-07T04:48:54.173Z,2.88
2022-09-07T04:51:21.505Z,1.65
2022-09-07T04:53:52.281Z,1.70
2022-09-07T04:56:19.406Z,2.55
2022-09-07T04:58:46.606Z,1.80
2022-09-07T05:01:17.210Z,1.77
2022-09-07T05:03:44.303Z,1.58
2022-09-07T05:06:11.152Z,1.58
2022-09-07T05:08:38.258Z,3.72
2022-09-07T05:11:05.139Z,2.47
2022-09-07T05:13:31.895Z,4.20
2022-09-07T05:15:59.100Z,2.38
2022-09-07T05:18:25.879Z,2.35
2022-09-07T05:20:55.416Z,2.65
2022-09-07T05:23:22.946Z,3.28
2022-09-07T05:25:49.608Z,1.65
2022-09-07T05:28:19.390Z,1.17
2022-09-07T05:36:20.630Z,2.03
2022-09-07T05:38:47.359Z,2.65
2022-09-07T05:41:15.546Z,2.65
2022-09-07T05:46:29.037Z,2.17
2022-09-07T05:48:56.169Z,1.17
2022-09-07T05:51:22.744Z,2.63
2022-09-07T05:53:50.635Z,3.13
2022-09-07T05:56:17.624Z,3.88
2022-09-07T05:58:47.935Z,2.35
2022-09-07T06:01:17.240Z,3.53
2022-09-07T06:03:46.739Z,4.00
2022-09-07T06:06:14.564Z,2.90
2022-09-07T06:08:45.264Z,2.55
2022-09-07T06:11:13.031Z,2.63
2022-09-07T06:13:42.949Z,2.08
2022-09-07T06:16:10.388Z,5.13
2022-09-07T06:18:38.178Z,6.60
2022-09-07T06:21:08.573Z,3.65
2022-09-07T06:23:39.369Z,2.30
2022-09-07T06:26:06.373Z,4.30
2022-09-07T06:28:42.932Z,3.25
2022-09-07T06:31:14.016Z,2.05
2022-09-07T06:33:41.704Z,2.25
2022-09-07T06:36:12.213Z,3.28
2022-09-07T06:38:39.076Z,2.92
2022-09-07T06:43:53.781Z,3.22
2022-09-07T06:49:07.079Z,15.63
2022-09-07T06:51:33.907Z,11.27
2022-09-07T06:56:52.244Z,7.65
2022-09-07T06:59:18.945Z,14.23
2022-09-07T07:01:45.623Z,20.60
2022-09-07T07:04:13.196Z,16.77
2022-09-07T07:06:40.176Z,20.50
2022-09-07T07:09:07.686Z,25.25
2022-09-07T07:11:37.133Z,18.83
2022-09-07T07:14:04.088Z,25.00
2022-09-07T07:16:30.875Z,20.75
2022-09-07T07:18:57.830Z,28.10
2022-09-07T07:21:25.608Z,23.42
2022-09-07T07:23:53.680Z,21.67
2022-09-07T07:26:21.932Z,20.75
2022-09-07T07:29:05.032Z,22.73
2022-09-07T07:31:33.261Z,25.85
2022-09-07T07:34:03.791Z,16.73
2022-09-07T07:36:30.925Z,19.73
2022-09-07T07:39:01.355Z,22.52
2022-09-07T07:44:18.998Z,17.75
2022-09-07T07:46:47.695Z,16.80
2022-09-07T07:49:14.386Z,17.90
2022-09-07T07:54:27.427Z,15.73
2022-09-07T07:56:53.992Z,12.82
2022-09-07T07:59:20.666Z,17.55
2022-09-07T08:01:47.270Z,16.48
2022-09-07T08:04:13.915Z,15.38
2022-09-07T08:06:42.579Z,19.02
2022-09-07T08:09:12.105Z,18.85
2022-09-07T08:11:40.225Z,26.70
2022-09-07T08:14:06.831Z,14.48
2022-09-07T08:16:34.150Z,21.55
2022-09-07T08:19:01.631Z,15.60
2022-09-07T08:21:28.369Z,18.10
2022-09-07T08:23:55.454Z,12.70
2022-09-07T08:26:22.109Z,14.70
2022-09-07T08:28:48.719Z,9.63
2022-09-07T08:31:16.151Z,6.57
2022-09-07T08:33:44.966Z,13.15
2022-09-07T08:36:12.991Z,16.48
2022-09-07T08:38:42.515Z,11.50
2022-09-07T08:41:39.431Z,11.77
2022-09-07T08:44:12.773Z,11.52
2022-09-07T08:46:45.289Z,12.95
2022-09-07T08:49:18.044Z,11.15
2022-09-07T08:51:57.627Z,9.98
2022-09-07T08:54:24.464Z,12.82
2022-09-07T09:00:11.683Z,8.18
2022-09-07T09:02:44.073Z,7.25
2022-09-07T09:05:22.567Z,7.68
2022-09-07T09:07:49.893Z,7.97
2022-09-07T09:10:34.984Z,7.07
2022-09-07T09:13:11.226Z,11.68
2022-09-07T09:15:47.682Z,11.43
2022-09-07T09:18:20.410Z,14.20
2022-09-07T09:20:56.916Z,11.57
2022-09-07T09:23:24.855Z,14.38
2022-09-07T09:26:04.376Z,9.38
2022-09-07T09:28:32.455Z,11.55
2022-09-07T09:30:59.211Z,10.73
2022-09-07T09:33:27.304Z,8.93
2022-09-07T09:35:55.013Z,8.35
2022-09-07T09:38:25.198Z,9.18
2022-09-07T09:40:53.059Z,12.25
2022-09-07T09:43:24.587Z,6.35
2022-09-07T09:48:43.019Z,5.95
2022-09-07T09:54:06.376Z,8.25
2022-09-07T09:56:36.618Z,5.82
2022-09-07T10:05:34.630Z,8.13
2022-09-07T10:08:01.663Z,7.32
2022-09-07T10:10:28.552Z,7.55
2022-09-07T10:12:56.001Z,7.68
2022-09-07T10:15:41.712Z,9.90
2022-09-07T10:18:17.292Z,8.98
2022-09-07T10:20:43.899Z,9.52
2022-09-07T10:23:20.415Z,6.20
2022-09-07T10:25:47.787Z,8.98
2022-09-07T10:28:15.145Z,10.65
2022-09-07T10:31:08.082Z,7.55
2022-09-07T10:34:25.708Z,8.57
2022-09-07T10:36:36.231Z,8.50
2022-09-07T10:39:13.341Z,8.55
2022-09-07T10:41:39.797Z,6.25
2022-09-07T10:44:11.634Z,9.05
2022-09-07T10:46:59.713Z,5.97
2022-09-07T10:49:32.320Z,8.85
2022-09-07T10:52:17.559Z,6.68
2022-09-07T10:54:44.152Z,6.70
2022-09-07T10:57:29.530Z,8.60
2022-09-07T11:00:14.581Z,9.18
2022-09-07T11:05:45.608Z,10.23
2022-09-07T11:08:27.332Z,9.27
2022-09-07T11:10:59.850Z,8.95
2022-09-07T11:13:28.296Z,6.13
2022-09-07T11:15:56.608Z,7.45
2022-09-07T11:18:23.332Z,5.50
2022-09-07T11:20:55.506Z,8.00
2022-09-07T11:23:28.341Z,4.80
2022-09-07T11:25:54.944Z,9.93
2022-09-07T11:28:23.632Z,7.47
2022-09-07T11:31:00.106Z,6.85
2022-09-07T11:33:27.214Z,6.50
2022-09-07T11:35:58.659Z,9.32
2022-09-07T11:38:34.145Z,11.10
2022-09-07T11:41:13.709Z,5.10
2022-09-07T11:43:46.190Z,7.10
2022-09-07T11:46:12.728Z,5.70
2022-09-07T11:48:43.878Z,7.38
2022-09-07T11:51:17.125Z,12.27
2022-09-07T11:53:46.025Z,7.93
2022-09-07T11:56:16.842Z,4.93
2022-09-07T11:58:55.713Z,5.88
2022-09-07T12:01:22.953Z,6.00
2022-09-07T12:03:59.744Z,7.93
2022-09-07T12:06:41.317Z,6.40
2022-09-07T12:09:08.078Z,6.22
2022-09-07T12:11:53.114Z,5.88
2022-09-07T12:14:22.435Z,10.75
2022-09-07T12:16:55.440Z,5.68
2022-09-07T12:19:24.900Z,6.97
2022-09-07T12:21:51.426Z,7.88
2022-09-07T12:24:26.951Z,14.15
2022-09-07T12:26:54.254Z,5.47
2022-09-07T12:29:22.640Z,7.55
2022-09-07T12:31:59.796Z,11.75
2022-09-07T12:34:34.022Z,5.13
2022-09-07T12:37:23.273Z,9.30
2022-09-07T12:39:50.297Z,6.68
2022-09-07T12:42:36.921Z,8.15
2022-09-07T12:45:22.950Z,5.97
2022-09-07T12:47:57.222Z,8.32
2022-09-07T12:50:28.659Z,7.68
2022-09-07T12:53:10.206Z,11.32
2022-09-07T12:56:16.356Z,7.25
2022-09-07T12:58:46.263Z,8.98
2022-09-07T13:01:26.955Z,8.60
2022-09-07T13:04:02.037Z,6.63
2022-09-07T13:07:03.343Z,11.20
2022-09-07T13:09:31.176Z,10.48
2022-09-07T13:11:57.893Z,11.35
2022-09-07T13:14:25.522Z,6.22
2022-09-07T13:17:19.329Z,9.23
2022-09-07T13:19:46.022Z,7.88
2022-09-07T13:22:31.305Z,7.75
2022-09-07T13:25:02.132Z,11.57
2022-09-07T13:27:33.639Z,7.00
2022-09-07T13:30:19.754Z,7.40
2022-09-07T13:35:33.235Z,6.43
2022-09-07T13:38:01.118Z,7.70
2022-09-07T13:40:29.984Z,7.00
2022-09-07T13:42:57.078Z,11.25
2022-09-07T13:45:45.659Z,7.93
2022-09-07T13:48:25.231Z,9.23
2022-09-07T13:51:10.574Z,8.32
2022-09-07T13:53:42.965Z,9.45
2022-09-07T13:56:15.388Z,5.68
2022-09-07T13:58:47.697Z,8.75
2022-09-07T14:01:25.211Z,8.57
2022-09-07T14:03:57.225Z,9.27
2022-09-07T14:06:25.560Z,10.15
2022-09-07T14:08:56.607Z,11.05
2022-09-07T14:11:24.804Z,7.70
2022-09-07T14:14:26.406Z,9.80
2022-09-07T14:16:53.151Z,6.30
2022-09-07T14:19:21.693Z,11.80
2022-09-07T14:21:58.315Z,9.23
2022-09-07T14:24:30.154Z,9.32
2022-09-07T14:26:57.052Z,6.50
2022-09-07T14:29:31.336Z,9.23
2022-09-07T14:31:59.327Z,8.90
2022-09-07T14:34:34.768Z,7.55
2022-09-07T14:37:04.910Z,8.13
2022-09-07T14:39:34.039Z,8.95
2022-09-07T14:42:02.126Z,10.70
2022-09-07T14:44:38.671Z,15.45
2022-09-07T14:47:21.859Z,6.00
2022-09-07T14:49:52.653Z,8.25
2022-09-07T14:52:21.856Z,6.57
2022-09-07T14:54:51.356Z,9.98
2022-09-07T14:57:18.226Z,11.25
2022-09-07T14:59:45.867Z,8.85
2022-09-07T15:02:18.772Z,7.95
2022-09-07T15:04:46.278Z,8.47
2022-09-07T15:07:29.139Z,9.10
2022-09-07T15:09:58.298Z,5.22
2022-09-07T15:12:38.182Z,7.13
2022-09-07T15:15:31.721Z,6.72
2022-09-07T15:18:05.859Z,5.55
2022-09-07T15:20:41.206Z,10.75
2022-09-07T15:23:12.281Z,8.32
2022-09-07T15:25:40.663Z,8.27
2022-09-07T15:33:59.937Z,6.97
2022-09-07T15:36:26.715Z,5.90
2022-09-07T15:39:00.708Z,10.43
2022-09-07T15:41:28.538Z,5.38
2022-09-07T15:43:56.638Z,9.10
2022-09-07T15:46:24.909Z,6.72
2022-09-07T15:48:54.199Z,7.32
2022-09-07T15:54:12.659Z,6.38
2022-09-07T15:56:40.461Z,8.43
2022-09-07T15:59:07.196Z,8.93
2022-09-07T16:04:24.061Z,7.93
2022-09-07T16:06:51.001Z,8.15
2022-09-07T16:09:21.533Z,8.35
2022-09-07T16:11:50.085Z,9.38
2022-09-07T16:14:17.416Z,10.25
2022-09-07T16:19:34.643Z,8.13
2022-09-07T16:22:01.911Z,9.77
2022-09-07T16:24:28.742Z,11.23
2022-09-07T16:26:55.450Z,7.13
2022-09-07T16:29:21.989Z,7.93
2022-09-07T16:34:35.340Z,11.52
2022-09-07T16:37:01.902Z,10.57
2022-09-07T16:39:29.191Z,11.23
2022-09-07T16:41:55.871Z,10.52
2022-09-07T16:44:22.466Z,13.35
2022-09-07T16:46:48.986Z,8.98
2022-09-07T16:49:19.657Z,10.07
2022-09-07T16:51:46.274Z,9.45
2022-09-07T16:54:14.300Z,10.60
2022-09-07T16:56:41.325Z,11.40
2022-09-07T16:59:11.355Z,8.85
2022-09-07T17:01:38.402Z,9.77
2022-09-07T17:04:10.439Z,6.82
2022-09-07T17:06:38.291Z,7.47
2022-09-07T17:09:04.868Z,5.95
2022-09-07T17:11:32.806Z,6.07
2022-09-07T17:14:00.189Z,6.32
2022-09-07T17:16:29.783Z,9.70
2022-09-07T17:21:44.469Z,9.95
2022-09-07T17:24:12.838Z,11.13
2022-09-07T17:26:42.240Z,6.18
2022-09-07T17:29:09.053Z,7.28
2022-09-07T17:34:23.373Z,7.00
2022-09-07T17:36:50.304Z,7.97
2022-09-07T17:39:18.580Z,9.23
2022-09-07T17:41:46.814Z,9.15
2022-09-07T17:44:13.389Z,10.52
2022-09-07T17:46:40.052Z,11.20
2022-09-07T17:49:10.370Z,8.93
2022-09-07T17:51:37.124Z,11.65
2022-09-07T17:54:09.449Z,9.60
2022-09-07T17:56:37.157Z,10.95
2022-09-07T18:01:50.712Z,11.95
2022-09-07T18:04:17.612Z,6.85
2022-09-07T18:06:47.262Z,8.77
2022-09-07T18:09:14.191Z,5.80
2022-09-07T18:11:47.139Z,8.15
2022-09-07T18:14:15.367Z,9.52
2022-09-07T18:16:42.832Z,8.30
2022-09-07T18:19:11.172Z,10.70
2022-09-07T18:21:38.203Z,6.53
2022-09-07T18:24:07.393Z,5.55
2022-09-07T18:26:35.257Z,7.90
2022-09-07T18:29:04.121Z,10.77
2022-09-07T18:31:31.644Z,10.27
2022-09-07T18:33:58.577Z,8.93
2022-09-07T18:36:25.847Z,12.93
2022-09-07T18:38:52.865Z,7.22
2022-09-07T18:41:22.333Z,7.65
2022-09-07T18:43:48.926Z,9.88
2022-09-07T18:46:16.904Z,10.95
2022-09-07T18:48:43.589Z,10.95
2022-09-07T18:51:10.836Z,12.15
2022-09-07T18:53:37.881Z,6.78
2022-09-07T18:56:13.686Z,8.68
2022-09-07T18:58:41.862Z,6.15
2022-09-07T19:01:10.302Z,7.95
2022-09-07T19:03:37.347Z,9.95
2022-09-07T19:06:08.239Z,4.72
2022-09-07T19:08:36.952Z,5.93
2022-09-07T19:11:07.084Z,9.35
2022-09-07T19:13:34.796Z,5.60
2022-09-07T19:16:05.671Z,13.00
2022-09-07T19:18:36.280Z,11.90
2022-09-07T19:21:04.228Z,8.73
2022-09-07T19:23:34.835Z,8.90
2022-09-07T19:26:02.361Z,7.72
2022-09-07T19:28:32.699Z,10.75
2022-09-07T19:31:03.828Z,10.70
2022-09-07T19:33:31.261Z,10.10
2022-09-07T19:35:57.923Z,7.68
2022-09-07T19:38:24.410Z,5.93
2022-09-07T19:40:58.055Z,12.00
2022-09-07T19:43:25.014Z,9.57
2022-09-07T19:45:51.666Z,9.05
2022-09-07T19:48:18.520Z,7.97
2022-09-07T19:50:46.797Z,11.77
2022-09-07T19:53:16.352Z,6.25
2022-09-07T19:55:42.896Z,9.80
2022-09-07T19:58:12.375Z,6.45
2022-09-07T20:00:41.756Z,7.18
2022-09-07T20:03:09.808Z,11.55
2022-09-07T20:05:40.383Z,5.18
2022-09-07T20:08:07.776Z,11.88
2022-09-07T20:10:34.753Z,8.48
2022-09-07T20:13:01.522Z,7.13
2022-09-07T20:15:28.266Z,6.00
2022-09-07T20:17:54.917Z,5.85
2022-09-07T20:20:23.900Z,6.30
2022-09-07T20:22:51.026Z,7.05
2022-09-07T20:25:17.549Z,8.38
2022-09-07T20:27:44.286Z,7.65
2022-09-07T20:30:11.109Z,8.52
2022-09-07T20:32:37.820Z,7.53
2022-09-07T20:35:04.554Z,7.30
2022-09-07T20:37:31.128Z,9.88
2022-09-07T20:39:57.747Z,6.65
2022-09-07T20:42:24.333Z,8.90
2022-09-07T20:44:50.834Z,9.32
2022-09-07T20:47:17.352Z,10.30
2022-09-07T20:49:43.882Z,6.93
2022-09-07T20:52:10.501Z,8.32
2022-09-07T20:54:38.805Z,8.32
2022-09-07T20:57:05.363Z,11.32
2022-09-07T20:59:31.874Z,5.10
2022-09-07T21:01:58.563Z,4.32
2022-09-07T21:04:26.440Z,4.95
2022-09-07T21:06:53.014Z,5.30
2022-09-07T21:09:20.060Z,5.28
2022-09-07T21:11:49.692Z,4.15
2022-09-07T21:14:17.812Z,7.43
2022-09-07T21:16:44.437Z,6.63
2022-09-07T21:19:13.897Z,5.10
2022-09-07T21:21:41.600Z,6.90
2022-09-07T21:24:18.946Z,5.43
2022-09-07T21:26:45.999Z,6.10
2022-09-07T21:29:15.371Z,9.98
2022-09-07T21:31:41.996Z,5.95
2022-09-07T21:34:09.916Z,5.50
2022-09-07T21:36:36.804Z,7.18
2022-09-07T21:39:04.307Z,5.28
2022-09-07T21:41:30.805Z,5.40
2022-09-07T21:43:57.776Z,3.45
2022-09-07T21:46:24.476Z,7.32
2022-09-07T21:48:51.026Z,4.47
2022-09-07T21:51:18.429Z,6.35
2022-09-07T21:53:45.023Z,5.80
2022-09-07T21:56:12.853Z,6.88
2022-09-07T21:58:40.718Z,4.93
2022-09-07T22:01:13.741Z,5.35
2022-09-07T22:03:40.698Z,6.17
2022-09-07T22:06:10.678Z,8.32
2022-09-07T22:08:38.401Z,6.35
2022-09-07T22:11:06.433Z,4.70
2022-09-07T22:13:33.071Z,6.38
2022-09-07T22:15:59.810Z,3.70
2022-09-07T22:18:26.597Z,8.35
2022-09-07T22:21:12.213Z,3.70
2022-09-07T22:23:40.225Z,5.45
2022-09-07T22:26:07.369Z,5.03
2022-09-07T22:28:34.388Z,4.72
2022-09-07T22:31:10.199Z,5.55
2022-09-07T22:33:36.826Z,5.30
2022-09-07T22:36:15.162Z,4.60
2022-09-07T22:38:42.868Z,5.25
2022-09-07T22:41:10.568Z,6.05
2022-09-07T22:43:37.537Z,3.15
2022-09-07T22:46:04.213Z,4.40
2022-09-07T22:48:31.017Z,4.95
2022-09-07T22:50:59.016Z,4.60
2022-09-07T22:53:26.269Z,4.80
2022-09-07T22:55:55.857Z,6.70
2022-09-07T22:58:23.839Z,7.80
2022-09-07T23:00:51.031Z,8.07
2022-09-07T23:03:18.099Z,10.98
2022-09-07T23:05:44.733Z,7.32
2022-09-07T23:08:13.920Z,5.13
2022-09-07T23:10:40.498Z,8.98
2022-09-07T23:13:16.538Z,6.00
2022-09-07T23:15:43.571Z,6.13
2022-09-07T23:18:16.968Z,5.97
2022-09-07T23:20:46.559Z,7.10
2022-09-07T23:23:13.417Z,7.22
2022-09-07T23:25:41.188Z,4.60
2022-09-07T23:28:10.017Z,4.63
2022-09-07T23:30:36.644Z,2.95
2022-09-07T23:33:03.384Z,7.53
2022-09-07T23:35:30.229Z,7.07
2022-09-07T23:37:56.981Z,7.10
2022-09-07T23:40:23.851Z,5.40
2022-09-07T23:42:50.362Z,7.40
2022-09-07T23:45:17.020Z,4.22
2022-09-07T23:47:43.943Z,4.78
2022-09-07T23:50:10.988Z,4.63
2022-09-07T23:52:37.984Z,4.05
2022-09-07T23:55:05.001Z,6.93
2022-09-07T23:57:31.847Z,5.95
2022-09-07T23:59:58.838Z,6.28
